createdAt,value
2022-09-03T00:00:09.693Z,229.80
2022-09-03T00:03:18.433Z,226.32
2022-09-03T00:06:15.917Z,193.73
2022-09-03T00:09:21.231Z,198.30
2022-09-03T00:11:53.191Z,197.30
2022-09-03T00:14:39.427Z,216.73
2022-09-03T00:17:14.269Z,200.93
2022-09-03T00:19:48.716Z,202.35
2022-09-03T00:22:21.724Z,237.20
2022-09-03T00:24:50.191Z,242.52
2022-09-03T00:27:22.527Z,246.57
2022-09-03T00:30:11.287Z,249.90
2022-09-03T00:32:47.357Z,248.40
2022-09-03T00:35:31.443Z,260.40
2022-09-03T00:38:03.444Z,234.55
2022-09-03T00:41:02.774Z,240.27
2022-09-03T00:44:11.021Z,291.13
2022-09-03T00:46:47.929Z,281.67
2022-09-03T00:49:45.280Z,290.40
2022-09-03T00:52:26.792Z,285.23
2022-09-03T00:55:39.407Z,307.15
2022-09-03T00:58:37.912Z,282.30
2022-09-03T01:01:13.484Z,296.13
2022-09-03T01:04:06.444Z,283.67
2022-09-03T01:06:58.942Z,274.00
2022-09-03T01:09:29.529Z,292.67
2022-09-03T01:12:22.269Z,299.95
2022-09-03T01:14:57.862Z,283.83
2022-09-03T01:17:33.288Z,282.85
2022-09-03T01:20:28.641Z,285.17
2022-09-03T01:23:14.322Z,274.13
2022-09-03T01:25:59.577Z,292.43
2022-09-03T01:28:38.995Z,297.95
2022-09-03T01:31:21.265Z,300.25
2022-09-03T01:34:17.678Z,305.60
2022-09-03T01:37:29.009Z,280.02
2022-09-03T01:40:12.043Z,315.52
2022-09-03T01:43:07.855Z,314.00
2022-09-03T01:45:51.267Z,282.80
2022-09-03T01:48:40.490Z,294.83
2022-09-03T01:51:25.169Z,309.88
2022-09-03T01:54:06.745Z,282.98
2022-09-03T01:57:17.276Z,281.80
2022-09-03T02:00:13.509Z,283.83
2022-09-03T02:02:43.385Z,277.40
2022-09-03T02:05:14.212Z,270.77
2022-09-03T02:07:52.952Z,269.67
2022-09-03T02:10:27.966Z,272.23
2022-09-03T02:13:07.895Z,270.83
2022-09-03T02:15:38.196Z,264.63
2022-09-03T02:18:11.079Z,258.10
2022-09-03T02:20:38.630Z,265.88
2022-09-03T02:23:05.849Z,253.32
2022-09-03T02:25:37.903Z,237.93
2022-09-03T02:28:11.221Z,227.38
2022-09-03T02:30:43.879Z,245.80
2022-09-03T02:33:10.853Z,232.57
2022-09-03T02:35:37.770Z,254.10
2022-09-03T02:38:13.040Z,239.75
2022-09-03T02:40:39.877Z,243.43
2022-09-03T02:43:10.286Z,242.68
2022-09-03T02:45:42.014Z,246.45
2022-09-03T02:48:10.271Z,246.33
2022-09-03T02:50:43.608Z,232.68
2022-09-03T02:53:10.356Z,246.82
2022-09-03T02:55:37.002Z,238.57
2022-09-03T02:58:05.943Z,241.20
2022-09-03T03:00:33.169Z,268.58
2022-09-03T03:02:59.782Z,264.52
2022-09-03T03:05:35.784Z,270.73
2022-09-03T03:08:02.621Z,259.88
2022-09-03T03:10:29.221Z,266.55
2022-09-03T03:12:55.889Z,270.92
2022-09-03T03:15:22.518Z,272.75
2022-09-03T03:17:49.133Z,276.63
2022-09-03T03:20:15.774Z,255.63
2022-09-03T03:22:42.427Z,274.75
2022-09-03T03:25:09.807Z,265.63
2022-09-03T03:27:42.366Z,268.38
2022-09-03T03:30:10.635Z,255.80
2022-09-03T03:32:37.933Z,259.13
2022-09-03T03:35:06.564Z,267.27
2022-09-03T03:37:35.615Z,269.23
2022-09-03T03:40:02.966Z,262.77
2022-09-03T03:42:29.592Z,259.20
2022-09-03T03:44:56.288Z,242.32
2022-09-03T03:47:23.027Z,244.23
2022-09-03T03:49:49.609Z,261.05
2022-09-03T03:52:16.231Z,268.50
2022-09-03T03:54:42.843Z,261.73
2022-09-03T03:57:09.401Z,248.05
2022-09-03T03:59:35.984Z,243.32
2022-09-03T04:02:02.611Z,252.75
2022-09-03T04:04:29.368Z,258.20
2022-09-03T04:06:56.032Z,238.98
2022-09-03T04:09:22.817Z,258.25
2022-09-03T04:11:50.789Z,264.65
2022-09-03T04:14:20.424Z,245.13
2022-09-03T04:16:47.217Z,249.77
2022-09-03T04:19:13.905Z,253.47
2022-09-03T04:21:40.531Z,236.57
2022-09-03T04:24:07.279Z,252.30
2022-09-03T04:26:34.669Z,251.85
2022-09-03T04:29:07.624Z,240.23
2022-09-03T04:31:35.599Z,241.82
2022-09-03T04:34:02.455Z,236.73
2022-09-03T04:36:30.946Z,245.20
2022-09-03T04:38:59.782Z,230.13
2022-09-03T04:41:28.732Z,244.13
2022-09-03T04:43:57.047Z,216.68
2022-09-03T04:46:26.489Z,227.85
2022-09-03T04:48:55.037Z,231.40
2022-09-03T04:51:28.614Z,226.50
2022-09-03T04:54:01.232Z,221.13
2022-09-03T04:56:30.799Z,231.07
2022-09-03T04:59:01.872Z,217.73
2022-09-03T05:01:30.797Z,220.32
2022-09-03T05:03:58.429Z,211.73
2022-09-03T05:06:30.101Z,209.35
2022-09-03T05:08:57.699Z,213.43
2022-09-03T05:11:25.602Z,199.93
2022-09-03T05:13:54.209Z,201.67
2022-09-03T05:16:22.985Z,199.82
2022-09-03T05:18:54.001Z,182.02
2022-09-03T05:21:21.533Z,178.25
2022-09-03T05:23:50.702Z,170.98
2022-09-03T05:26:25.999Z,159.55
2022-09-03T05:28:58.978Z,158.93
2022-09-03T05:31:28.241Z,149.38
2022-09-03T05:33:58.541Z,148.70
2022-09-03T05:36:28.066Z,140.00
2022-09-03T05:38:54.804Z,130.45
2022-09-03T05:41:22.722Z,139.02
2022-09-03T05:43:56.105Z,139.55
2022-09-03T05:46:30.119Z,133.10
2022-09-03T05:48:56.878Z,139.50
2022-09-03T05:51:23.493Z,134.75
2022-09-03T05:53:50.410Z,134.95
2022-09-03T05:56:19.292Z,132.10
2022-09-03T05:58:51.157Z,126.88
2022-09-03T06:01:29.082Z,129.75
2022-09-03T06:04:06.250Z,145.90
2022-09-03T06:06:35.674Z,134.35
2022-09-03T06:09:05.626Z,131.07
2022-09-03T06:11:34.745Z,131.68
2022-09-03T06:14:08.137Z,129.98
2022-09-03T06:16:40.149Z,124.07
2022-09-03T06:19:10.755Z,114.85
2022-09-03T06:21:42.641Z,113.95
2022-09-03T06:24:14.924Z,97.43
2022-09-03T06:26:42.848Z,96.10
2022-09-03T06:29:10.563Z,79.15
2022-09-03T06:31:37.545Z,78.13
2022-09-03T06:34:04.497Z,82.78
2022-09-03T06:36:31.604Z,83.78
2022-09-03T06:38:58.562Z,88.95
2022-09-03T06:41:28.037Z,95.22
2022-09-03T06:44:03.331Z,103.03
2022-09-03T06:46:39.033Z,113.15
2022-09-03T06:49:06.044Z,104.15
2022-09-03T06:51:33.354Z,108.72
2022-09-03T06:54:03.292Z,112.22
2022-09-03T06:56:32.340Z,104.82
2022-09-03T06:59:05.487Z,111.30
2022-09-03T07:01:33.867Z,89.00
2022-09-03T07:04:02.871Z,100.40
2022-09-03T07:06:33.068Z,90.70
2022-09-03T07:09:00.227Z,95.37
2022-09-03T07:11:30.855Z,81.85
2022-09-03T07:13:58.400Z,85.17
2022-09-03T07:16:30.173Z,81.97
2022-09-03T07:18:57.128Z,84.43
2022-09-03T07:21:26.054Z,91.90
2022-09-03T07:23:54.784Z,98.00
2022-09-03T07:26:30.839Z,107.53
2022-09-03T07:28:58.482Z,110.93
2022-09-03T07:31:28.167Z,115.00
2022-09-03T07:34:06.154Z,124.33
2022-09-03T07:36:43.033Z,108.70
2022-09-03T07:39:11.449Z,116.13
2022-09-03T07:41:38.772Z,98.88
2022-09-03T07:44:05.944Z,113.50
2022-09-03T07:46:35.213Z,109.90
2022-09-03T07:49:02.520Z,104.93
2022-09-03T07:51:32.167Z,94.57
2022-09-03T07:54:02.276Z,81.38
2022-09-03T07:56:32.406Z,78.07
2022-09-03T07:58:59.416Z,63.47
2022-09-03T08:01:28.596Z,58.40
2022-09-03T08:03:55.934Z,26.85
2022-09-03T08:06:25.576Z,11.43
2022-09-03T08:09:04.122Z,8.70
2022-09-03T08:11:32.654Z,9.82
2022-09-03T08:14:02.709Z,8.50
2022-09-03T08:16:32.108Z,6.20
2022-09-03T08:18:59.228Z,10.57
2022-09-03T08:21:29.216Z,10.18
2022-09-03T08:24:02.805Z,8.67
2022-09-03T08:26:31.912Z,8.95
2022-09-03T08:28:59.104Z,7.68
2022-09-03T08:31:27.945Z,7.78
2022-09-03T08:33:56.563Z,8.85
2022-09-03T08:36:30.000Z,8.38
2022-09-03T08:38:59.398Z,8.45
2022-09-03T08:41:52.952Z,8.73
2022-09-03T08:44:22.359Z,9.20
2022-09-03T08:47:24.465Z,6.57
2022-09-03T08:50:09.012Z,16.13
2022-09-03T08:52:50.291Z,46.65
2022-09-03T08:55:44.797Z,35.33
2022-09-03T08:58:11.961Z,65.22
2022-09-03T09:01:17.022Z,62.15
2022-09-03T09:03:49.636Z,68.13
2022-09-03T09:06:39.893Z,67.80
2022-09-03T09:09:38.052Z,87.28
2022-09-03T09:12:16.883Z,64.25
2022-09-03T09:15:17.979Z,55.22
2022-09-03T09:18:17.463Z,39.22
2022-09-03T09:20:52.739Z,78.68
2022-09-03T09:23:37.832Z,66.00
2022-09-03T09:26:12.338Z,97.55
2022-09-03T09:28:39.533Z,104.32
2022-09-03T09:31:10.167Z,89.47
2022-09-03T09:33:37.402Z,78.43
2022-09-03T09:36:08.496Z,62.50
2022-09-03T09:38:37.448Z,42.17
2022-09-03T09:41:23.372Z,33.72
2022-09-03T09:44:03.535Z,29.20
2022-09-03T09:46:41.536Z,21.23
2022-09-03T09:49:38.221Z,17.88
2022-09-03T09:52:12.026Z,16.50
2022-09-03T09:54:40.317Z,13.93
2022-09-03T09:57:14.352Z,15.52
2022-09-03T09:59:40.972Z,16.98
2022-09-03T10:02:13.832Z,14.43
2022-09-03T10:04:49.708Z,9.18
2022-09-03T10:07:32.049Z,9.33
2022-09-03T10:10:04.134Z,8.90
2022-09-03T10:12:35.355Z,3.70
2022-09-03T10:15:21.429Z,2.80
2022-09-03T10:18:03.410Z,3.53
2022-09-03T10:20:39.060Z,3.28
2022-09-03T10:23:18.010Z,4.63
2022-09-03T10:25:58.074Z,3.00
2022-09-03T10:28:30.484Z,4.10
2022-09-03T10:31:19.042Z,3.30
2022-09-03T10:34:33.648Z,2.15
2022-09-03T10:37:06.243Z,2.40
2022-09-03T10:39:54.573Z,3.13
2022-09-03T10:42:33.536Z,2.33
2022-09-03T10:45:18.077Z,2.77
2022-09-03T10:48:21.998Z,2.47
2022-09-03T10:50:51.529Z,2.03
2022-09-03T10:53:33.067Z,2.80
2022-09-03T10:56:08.975Z,1.60
2022-09-03T10:58:57.649Z,3.58
2022-09-03T11:01:45.759Z,5.32
2022-09-03T11:04:28.299Z,3.92
2022-09-03T11:07:03.076Z,5.60
2022-09-03T11:09:45.209Z,3.75
2022-09-03T11:12:22.323Z,3.75
2022-09-03T11:15:19.291Z,6.80
2022-09-03T11:17:56.813Z,6.38
2022-09-03T11:20:25.871Z,6.22
2022-09-03T11:23:03.321Z,6.38
2022-09-03T11:25:42.175Z,7.97
2022-09-03T11:28:27.757Z,6.95
2022-09-03T11:31:20.400Z,8.52
2022-09-03T11:34:19.643Z,7.38
2022-09-03T11:36:50.399Z,9.07
2022-09-03T11:39:35.073Z,9.95
2022-09-03T11:42:11.401Z,9.68
2022-09-03T11:44:51.162Z,8.32
2022-09-03T11:47:46.886Z,8.20
2022-09-03T11:50:24.956Z,8.27
2022-09-03T11:53:06.889Z,8.45
2022-09-03T11:55:47.225Z,8.10
2022-09-03T11:58:26.503Z,8.25
2022-09-03T12:00:55.135Z,10.93
2022-09-03T12:03:35.897Z,11.10
2022-09-03T12:06:05.549Z,16.70
2022-09-03T12:09:07.853Z,17.15
2022-09-03T12:11:57.702Z,25.33
2022-09-03T12:14:30.962Z,26.35
2022-09-03T12:17:06.537Z,31.05
2022-09-03T12:19:53.154Z,30.27
2022-09-03T12:22:22.759Z,33.58
2022-09-03T12:24:50.753Z,33.70
2022-09-03T12:27:24.240Z,33.30
2022-09-03T12:30:00.077Z,34.57
2022-09-03T12:32:37.172Z,25.93
2022-09-03T12:38:18.284Z,21.65
2022-09-03T12:43:40.815Z,12.80
2022-09-03T12:46:15.557Z,11.83
2022-09-03T12:52:05.773Z,11.43
2022-09-03T12:54:40.618Z,11.10
2022-09-03T12:57:08.943Z,8.82
2022-09-03T12:59:39.257Z,8.18
2022-09-03T13:02:16.057Z,6.95
2022-09-03T13:04:43.856Z,6.47
2022-09-03T13:07:23.714Z,6.28
2022-09-03T13:09:50.747Z,6.28
2022-09-03T13:12:29.111Z,5.05
2022-09-03T13:14:56.953Z,5.03
2022-09-03T13:17:23.433Z,4.33
2022-09-03T13:20:08.309Z,4.78
2022-09-03T13:22:54.081Z,3.47
2022-09-03T13:25:33.859Z,3.75
2022-09-03T13:28:40.022Z,2.65
2022-09-03T13:31:32.502Z,2.63
2022-09-03T13:34:07.900Z,3.92
2022-09-03T13:37:11.885Z,4.00
2022-09-03T13:39:53.340Z,1.90
2022-09-03T13:42:33.068Z,3.20
2022-09-03T13:45:26.292Z,3.07
2022-09-03T13:48:18.484Z,4.80
2022-09-03T13:51:09.331Z,9.65
2022-09-03T13:53:36.396Z,11.02
2022-09-03T13:56:16.778Z,13.20
2022-09-03T13:58:50.360Z,23.33
2022-09-03T14:01:41.097Z,21.63
2022-09-03T14:04:19.383Z,28.15
2022-09-03T14:07:02.811Z,32.53
2022-09-03T14:10:10.236Z,33.22
2022-09-03T14:12:55.239Z,21.80
2022-09-03T14:15:31.704Z,15.85
2022-09-03T14:18:14.001Z,12.77
2022-09-03T14:21:28.802Z,9.27
2022-09-03T14:24:07.301Z,8.30
2022-09-03T14:26:39.476Z,6.18
2022-09-03T14:29:12.031Z,5.68
2022-09-03T14:32:05.332Z,5.35
2022-09-03T14:34:59.929Z,5.22
2022-09-03T14:38:03.207Z,6.32
2022-09-03T14:40:45.122Z,4.20
2022-09-03T14:43:39.485Z,6.50
2022-09-03T14:46:30.880Z,3.17
2022-09-03T14:49:09.382Z,2.30
2022-09-03T14:52:01.278Z,3.22
2022-09-03T14:54:34.517Z,2.47
2022-09-03T14:57:13.114Z,3.35
2022-09-03T14:59:55.014Z,2.28
2022-09-03T15:02:36.593Z,1.75
2022-09-03T15:05:12.362Z,3.03
2022-09-03T15:07:46.786Z,5.18
2022-09-03T15:10:54.490Z,2.40
2022-09-03T15:13:27.885Z,1.25
2022-09-03T15:16:19.282Z,3.10
2022-09-03T15:19:04.781Z,1.92
2022-09-03T15:21:37.419Z,7.35
2022-09-03T15:24:14.006Z,1.55
2022-09-03T15:26:53.298Z,2.22
2022-09-03T15:29:48.197Z,4.43
2022-09-03T15:32:22.604Z,2.42
2022-09-03T15:35:04.425Z,2.37
2022-09-03T15:37:42.682Z,4.30
2022-09-03T15:40:41.749Z,1.95
2022-09-03T15:43:29.512Z,1.90
2022-09-03T15:46:30.307Z,1.85
2022-09-03T15:49:02.933Z,2.80
2022-09-03T15:51:49.929Z,2.55
2022-09-03T15:54:27.041Z,3.03
2022-09-03T15:57:02.441Z,5.13
2022-09-03T15:59:40.156Z,11.70
2022-09-03T16:02:33.355Z,4.82
2022-09-03T16:05:14.164Z,2.65
2022-09-03T16:08:09.438Z,3.00
2022-09-03T16:11:06.825Z,2.23
2022-09-03T16:13:44.660Z,4.13
2022-09-03T16:16:57.935Z,2.60
2022-09-03T16:19:34.153Z,2.70
2022-09-03T16:22:07.385Z,3.20
2022-09-03T16:24:45.041Z,2.67
2022-09-03T16:27:23.308Z,2.58
2022-09-03T16:29:57.935Z,4.43
2022-09-03T16:32:53.467Z,4.55
2022-09-03T16:35:31.774Z,5.00
2022-09-03T16:38:18.237Z,5.93
2022-09-03T16:41:01.923Z,7.63
2022-09-03T16:43:52.373Z,3.28
2022-09-03T16:46:49.480Z,4.47
2022-09-03T16:49:51.162Z,4.07
2022-09-03T16:52:37.557Z,4.30
2022-09-03T16:55:21.271Z,6.00
2022-09-03T16:58:09.846Z,7.05
2022-09-03T17:00:42.939Z,9.30
2022-09-03T17:03:34.493Z,8.13
2022-09-03T17:06:07.143Z,8.23
2022-09-03T17:08:42.748Z,5.38
2022-09-03T17:11:25.837Z,5.60
2022-09-03T17:14:19.552Z,5.05
2022-09-03T17:16:55.682Z,5.15
2022-09-03T17:19:52.520Z,5.38
2022-09-03T17:22:53.398Z,7.35
2022-09-03T17:25:21.069Z,14.40
2022-09-03T17:28:07.559Z,17.02
2022-09-03T17:31:09.948Z,22.13
2022-09-03T17:34:02.462Z,24.77
2022-09-03T17:36:31.378Z,32.07
2022-09-03T17:39:36.100Z,32.37
2022-09-03T17:42:06.458Z,35.35
2022-09-03T17:44:59.443Z,45.72
2022-09-03T17:47:44.659Z,37.00
2022-09-03T17:50:11.297Z,41.15
2022-09-03T17:52:44.157Z,45.72
2022-09-03T17:55:13.745Z,42.17
2022-09-03T17:57:45.946Z,38.87
2022-09-03T18:00:23.615Z,42.75
2022-09-03T18:03:14.225Z,44.30
2022-09-03T18:05:48.381Z,53.55
2022-09-03T18:08:24.839Z,54.00
2022-09-03T18:11:09.861Z,53.05
2022-09-03T18:13:54.616Z,41.92
2022-09-03T18:16:28.841Z,54.70
2022-09-03T18:19:18.826Z,51.30
2022-09-03T18:22:07.389Z,52.23
2022-09-03T18:25:06.876Z,56.65
2022-09-03T18:27:52.289Z,59.90
2022-09-03T18:30:38.125Z,61.25
2022-09-03T18:33:23.354Z,60.97
2022-09-03T18:36:08.856Z,56.72
2022-09-03T18:38:58.115Z,62.85
2022-09-03T18:42:18.753Z,58.85
2022-09-03T18:45:42.276Z,64.80
2022-09-03T18:48:51.916Z,63.95
2022-09-03T18:52:34.601Z,56.83
2022-09-03T18:56:01.104Z,67.15
2022-09-03T18:59:09.449Z,64.20
2022-09-03T19:01:58.512Z,61.65
2022-09-03T19:04:52.977Z,57.88
2022-09-03T19:08:00.107Z,65.68
2022-09-03T19:11:08.522Z,65.15
2022-09-03T19:13:58.717Z,57.53
2022-09-03T19:17:00.217Z,68.45
2022-09-03T19:19:53.499Z,61.08
2022-09-03T19:22:47.647Z,59.55
2022-09-03T19:25:34.180Z,62.55
2022-09-03T19:28:38.020Z,68.07
2022-09-03T19:31:58.368Z,72.82
2022-09-03T19:35:02.570Z,73.65
2022-09-03T19:37:59.875Z,68.90
2022-09-03T19:41:03.465Z,71.28
2022-09-03T19:43:48.558Z,76.07
2022-09-03T19:46:40.842Z,73.60
2022-09-03T19:49:50.862Z,69.00
2022-09-03T19:52:52.524Z,67.60
2022-09-03T19:55:44.140Z,75.38
2022-09-03T19:58:43.257Z,68.18
2022-09-03T20:01:30.141Z,72.90
2022-09-03T20:04:18.917Z,70.10
2022-09-03T20:07:05.114Z,88.82
2022-09-03T20:09:58.045Z,82.15
2022-09-03T20:12:28.819Z,69.68
2022-09-03T20:14:57.865Z,84.10
2022-09-03T20:17:46.104Z,77.78
2022-09-03T20:20:30.237Z,81.68
2022-09-03T20:23:02.987Z,75.17
2022-09-03T20:25:58.137Z,86.18
2022-09-03T20:28:30.811Z,58.85
2022-09-03T20:31:02.215Z,79.20
2022-09-03T20:34:03.145Z,79.85
2022-09-03T20:36:49.766Z,82.45
2022-09-03T20:39:55.368Z,85.43
2022-09-03T20:42:21.936Z,88.33
2022-09-03T20:45:06.526Z,102.80
2022-09-03T20:47:59.803Z,99.63
2022-09-03T20:50:43.613Z,93.95
2022-09-03T20:53:30.225Z,86.40
2022-09-03T20:56:03.568Z,99.43
2022-09-03T20:59:12.404Z,97.07
2022-09-03T21:01:57.655Z,86.93
2022-09-03T21:04:45.051Z,79.65
2022-09-03T21:07:17.966Z,110.97
2022-09-03T21:10:21.173Z,79.90
2022-09-03T21:12:57.227Z,105.05
2022-09-03T21:15:42.706Z,89.63
2022-09-03T21:18:27.703Z,107.97
2022-09-03T21:21:10.226Z,75.75
2022-09-03T21:23:44.720Z,109.82
2022-09-03T21:26:24.575Z,91.65
2022-09-03T21:29:09.474Z,108.85
2022-09-03T21:31:50.423Z,99.72
2022-09-03T21:34:31.057Z,89.38
2022-09-03T21:37:03.422Z,101.38
2022-09-03T21:40:01.287Z,102.23
2022-09-03T21:42:37.819Z,106.97
2022-09-03T21:45:09.205Z,84.40
2022-09-03T21:47:48.731Z,98.20
2022-09-03T21:50:19.474Z,99.45
2022-09-03T21:53:10.361Z,95.35
2022-09-03T21:55:49.086Z,92.35
2022-09-03T21:58:37.133Z,98.60
2022-09-03T22:01:10.633Z,90.00
2022-09-03T22:03:37.350Z,92.05
2022-09-03T22:06:12.153Z,87.28
2022-09-03T22:08:49.185Z,93.40
2022-09-03T22:11:29.461Z,78.63
2022-09-03T22:14:12.719Z,72.32
2022-09-03T22:16:48.083Z,87.77
2022-09-03T22:19:15.346Z,92.70
2022-09-03T22:21:57.118Z,86.97
2022-09-03T22:24:55.120Z,86.13
2022-09-03T22:27:46.574Z,92.00
2022-09-03T22:30:21.498Z,94.57
2022-09-03T22:33:18.730Z,89.00
2022-09-03T22:36:22.462Z,77.93
2022-09-03T22:38:55.304Z,91.07
2022-09-03T22:42:08.475Z,69.10
2022-09-03T22:44:55.525Z,74.05
2022-09-03T22:47:40.728Z,69.03
2022-09-03T22:50:14.068Z,93.97
2022-09-03T22:52:49.360Z,102.03
2022-09-03T22:55:18.507Z,105.13
2022-09-03T22:57:52.165Z,70.43
2022-09-03T23:00:19.178Z,88.25
2022-09-03T23:02:51.040Z,87.95
2022-09-03T23:05:43.905Z,95.78
2022-09-03T23:08:43.168Z,75.03
2022-09-03T23:11:25.296Z,95.05
2022-09-03T23:14:00.475Z,90.75
2022-09-03T23:17:06.141Z,82.20
2022-09-03T23:19:48.741Z,94.20
2022-09-03T23:22:27.723Z,76.25
2022-09-03T23:25:01.798Z,84.85
2022-09-03T23:28:00.808Z,90.47
2022-09-03T23:30:27.478Z,100.40
2022-09-03T23:32:58.331Z,83.03
2022-09-03T23:35:30.545Z,99.22
2022-09-03T23:38:13.467Z,94.03
2022-09-03T23:40:51.522Z,69.90
2022-09-03T23:43:38.975Z,77.13
2022-09-03T23:46:49.557Z,72.85
2022-09-03T23:49:29.297Z,86.68
2022-09-03T23:52:07.787Z,69.20
2022-09-03T23:54:47.886Z,83.47
2022-09-03T23:57:26.899Z,93.35
